createdAt,value
2019-02-03T00:00:14.994Z,155.60
2019-02-03T00:01:15.004Z,170.10
2019-02-03T00:02:15.070Z,161.70
2019-02-03T00:03:15.034Z,163.50
2019-02-03T00:04:15.041Z,155.70
2019-02-03T00:05:15.070Z,155.30
2019-02-03T00:06:15.066Z,150.90
2019-02-03T00:07:15.081Z,153.20
2019-02-03T00:08:15.095Z,158.70
2019-02-03T00:09:15.105Z,163.20
2019-02-03T00:10:15.120Z,152.40
2019-02-03T00:11:15.130Z,165.30
2019-02-03T00:12:15.145Z,169.30
2019-02-03T00:13:15.156Z,170.20
2019-02-03T00:14:15.171Z,163.10
2019-02-03T00:15:15.186Z,163.90
2019-02-03T00:16:15.194Z,165.80
2019-02-03T00:17:15.207Z,170.30
2019-02-03T00:18:15.223Z,163.30
2019-02-03T00:19:15.237Z,168.80
2019-02-03T00:20:15.264Z,164.70
2019-02-03T00:21:15.259Z,169.30
2019-02-03T00:22:15.301Z,160.40
2019-02-03T00:23:15.355Z,167.90
2019-02-03T00:24:15.301Z,150.90
2019-02-03T00:25:15.322Z,166.40
2019-02-03T00:26:17.692Z,164.30
2019-02-03T00:27:15.339Z,152.20
2019-02-03T00:28:15.350Z,160.90
2019-02-03T00:29:15.366Z,161.10
2019-02-03T00:30:15.378Z,144.80
2019-02-03T00:31:15.390Z,161.00
2019-02-03T00:32:15.402Z,153.30
2019-02-03T00:33:15.419Z,149.60
2019-02-03T00:34:15.429Z,158.20
2019-02-03T00:35:15.445Z,155.10
2019-02-03T00:36:15.454Z,156.50
2019-02-03T00:37:17.677Z,146.90
2019-02-03T00:38:21.444Z,160.50
2019-02-03T00:39:15.521Z,155.10
2019-02-03T00:40:15.517Z,144.30
2019-02-03T00:41:15.521Z,152.80
2019-02-03T00:42:15.533Z,155.10
2019-02-03T00:43:15.555Z,160.90
2019-02-03T00:44:18.470Z,160.50
2019-02-03T00:45:15.576Z,154.40
2019-02-03T00:46:15.587Z,152.10
2019-02-03T00:47:15.601Z,146.90
2019-02-03T00:48:15.610Z,155.50
2019-02-03T00:49:15.625Z,146.90
2019-02-03T00:50:15.638Z,152.50
2019-02-03T00:51:15.650Z,156.90
2019-02-03T00:52:15.664Z,153.40
2019-02-03T00:53:15.679Z,138.40
2019-02-03T00:54:15.691Z,150.30
2019-02-03T00:55:15.708Z,149.60
2019-02-03T00:56:15.717Z,145.30
2019-02-03T00:57:15.728Z,136.20
2019-02-03T00:58:15.741Z,144.50
2019-02-03T00:59:15.829Z,138.00
2019-02-03T01:00:15.767Z,149.20
2019-02-03T01:01:15.855Z,143.80
2019-02-03T01:02:15.793Z,150.70
2019-02-03T01:03:15.808Z,147.70
2019-02-03T01:04:15.819Z,154.20
2019-02-03T01:05:15.835Z,152.50
2019-02-03T01:06:15.852Z,146.90
2019-02-03T01:07:26.807Z,151.60
2019-02-03T01:08:15.873Z,148.40
2019-02-03T01:09:15.884Z,147.60
2019-02-03T01:10:15.899Z,146.90
2019-02-03T01:11:15.919Z,138.40
2019-02-03T01:12:15.923Z,145.50
2019-02-03T01:13:15.942Z,147.40
2019-02-03T01:14:15.950Z,142.10
2019-02-03T01:15:15.963Z,143.30
2019-02-03T01:16:15.977Z,138.40
2019-02-03T01:17:15.989Z,143.70
2019-02-03T01:18:16.004Z,143.10
2019-02-03T01:19:16.017Z,150.20
2019-02-03T01:20:16.027Z,142.00
2019-02-03T01:21:16.045Z,156.80
2019-02-03T01:22:16.063Z,148.90
2019-02-03T01:23:16.069Z,140.70
2019-02-03T01:24:16.083Z,153.30
2019-02-03T01:25:16.095Z,151.40
2019-02-03T01:26:16.106Z,147.00
2019-02-03T01:27:16.121Z,152.50
2019-02-03T01:28:16.133Z,149.80
2019-02-03T01:29:16.147Z,148.40
2019-02-03T01:30:16.161Z,142.90
2019-02-03T01:31:16.171Z,141.10
2019-02-03T01:32:16.189Z,141.60
2019-02-03T01:33:16.197Z,145.60
2019-02-03T01:34:16.212Z,146.30
2019-02-03T01:35:16.223Z,145.30
2019-02-03T01:36:16.239Z,145.60
2019-02-03T01:37:16.251Z,142.70
2019-02-03T01:38:16.263Z,136.40
2019-02-03T01:39:16.276Z,135.00
2019-02-03T01:40:16.288Z,143.10
2019-02-03T01:41:16.418Z,136.90
2019-02-03T01:42:16.316Z,144.50
2019-02-03T01:43:16.329Z,136.30
2019-02-03T01:44:16.385Z,136.10
2019-02-03T01:45:16.353Z,139.30
2019-02-03T01:46:16.366Z,126.70
2019-02-03T01:47:16.388Z,141.80
2019-02-03T01:48:16.395Z,137.60
2019-02-03T01:49:16.405Z,143.60
2019-02-03T01:50:16.427Z,133.40
2019-02-03T01:51:16.435Z,134.30
2019-02-03T01:52:16.451Z,131.90
2019-02-03T01:53:16.496Z,129.50
2019-02-03T01:54:16.480Z,136.50
2019-02-03T01:55:16.560Z,140.20
2019-02-03T01:56:16.497Z,142.10
2019-02-03T01:57:16.516Z,139.20
2019-02-03T01:58:16.526Z,139.00
2019-02-03T01:59:16.540Z,136.80
2019-02-03T02:00:16.552Z,140.70
2019-02-03T02:01:16.563Z,125.60
2019-02-03T02:02:16.577Z,148.30
2019-02-03T02:03:16.590Z,130.90
2019-02-03T02:04:16.601Z,135.30
2019-02-03T02:05:16.615Z,126.40
2019-02-03T02:06:16.635Z,143.50
2019-02-03T02:07:16.642Z,137.60
2019-02-03T02:08:16.654Z,135.20
2019-02-03T02:09:16.669Z,133.60
2019-02-03T02:10:16.680Z,146.60
2019-02-03T02:11:16.703Z,144.00
2019-02-03T02:12:16.707Z,140.40
2019-02-03T02:13:16.724Z,132.10
2019-02-03T02:14:16.734Z,136.80
2019-02-03T02:15:16.745Z,136.40
2019-02-03T02:16:16.762Z,138.90
2019-02-03T02:17:16.773Z,144.20
2019-02-03T02:18:16.783Z,139.20
2019-02-03T02:19:16.797Z,141.80
2019-02-03T02:20:16.810Z,143.10
2019-02-03T02:21:16.826Z,148.70
2019-02-03T02:22:16.842Z,139.10
2019-02-03T02:23:16.861Z,143.30
2019-02-03T02:24:16.864Z,138.20
2019-02-03T02:25:16.876Z,145.50
2019-02-03T02:26:16.889Z,145.60
2019-02-03T02:27:16.902Z,135.20
2019-02-03T02:28:16.915Z,144.10
2019-02-03T02:29:16.928Z,142.70
2019-02-03T02:30:16.948Z,134.20
2019-02-03T02:31:16.952Z,140.30
2019-02-03T02:32:16.966Z,135.00
2019-02-03T02:33:16.981Z,130.70
2019-02-03T02:34:16.996Z,135.90
2019-02-03T02:35:17.006Z,142.70
2019-02-03T02:36:17.128Z,132.60
2019-02-03T02:37:17.029Z,138.30
2019-02-03T02:38:17.043Z,136.00
2019-02-03T02:39:17.061Z,140.50
2019-02-03T02:40:17.069Z,132.20
2019-02-03T02:41:17.080Z,137.30
2019-02-03T02:42:17.095Z,145.80
2019-02-03T02:43:17.107Z,152.50
2019-02-03T02:44:17.121Z,142.40
2019-02-03T02:45:17.134Z,132.10
2019-02-03T02:46:17.146Z,133.90
2019-02-03T02:47:17.160Z,132.90
2019-02-03T02:48:17.176Z,146.20
2019-02-03T02:49:17.180Z,133.80
2019-02-03T02:50:17.205Z,136.40
2019-02-03T02:51:17.216Z,144.60
2019-02-03T02:52:17.219Z,139.10
2019-02-03T02:53:17.232Z,140.40
2019-02-03T02:54:17.247Z,133.40
2019-02-03T02:55:17.265Z,139.00
2019-02-03T02:56:17.271Z,135.20
2019-02-03T02:57:17.286Z,137.10
2019-02-03T02:58:17.297Z,150.20
2019-02-03T02:59:17.307Z,133.60
2019-02-03T03:00:17.814Z,140.60
2019-02-03T03:01:17.336Z,149.00
2019-02-03T03:02:17.348Z,148.80
2019-02-03T03:03:17.386Z,143.30
2019-02-03T03:04:17.370Z,130.60
2019-02-03T03:05:17.391Z,134.90
2019-02-03T03:06:17.410Z,143.00
2019-02-03T03:07:17.423Z,134.00
2019-02-03T03:08:19.612Z,140.50
2019-02-03T03:09:17.435Z,140.10
2019-02-03T03:10:17.452Z,135.40
2019-02-03T03:11:17.458Z,137.50
2019-02-03T03:12:17.471Z,136.30
2019-02-03T03:13:17.484Z,141.00
2019-02-03T03:14:17.500Z,148.40
2019-02-03T03:15:17.508Z,143.00
2019-02-03T03:16:17.522Z,142.30
2019-02-03T03:17:17.675Z,144.70
2019-02-03T03:18:17.548Z,132.50
2019-02-03T03:19:17.561Z,136.90
2019-02-03T03:20:17.571Z,141.50
2019-02-03T03:21:17.585Z,133.60
2019-02-03T03:22:17.596Z,133.20
2019-02-03T03:23:17.623Z,129.80
2019-02-03T03:24:17.622Z,132.10
2019-02-03T03:25:17.636Z,131.50
2019-02-03T03:26:17.653Z,132.20
2019-02-03T03:27:17.667Z,141.90
2019-02-03T03:28:17.674Z,128.30
2019-02-03T03:29:17.686Z,137.10
2019-02-03T03:30:17.717Z,123.40
2019-02-03T03:31:17.716Z,139.00
2019-02-03T03:32:17.722Z,127.40
2019-02-03T03:33:17.737Z,132.90
2019-02-03T03:34:17.749Z,121.90
2019-02-03T03:35:17.764Z,137.10
2019-02-03T03:36:17.771Z,128.80
2019-02-03T03:37:17.783Z,130.00
2019-02-03T03:38:17.798Z,129.00
2019-02-03T03:39:17.818Z,131.40
2019-02-03T03:40:17.820Z,143.00
2019-02-03T03:41:17.835Z,138.40
2019-02-03T03:42:17.848Z,133.10
2019-02-03T03:43:17.865Z,136.60
2019-02-03T03:44:17.877Z,143.10
2019-02-03T03:45:17.886Z,140.10
2019-02-03T03:46:17.903Z,131.80
2019-02-03T03:47:17.914Z,135.30
2019-02-03T03:48:17.927Z,126.10
2019-02-03T03:49:17.934Z,126.10
2019-02-03T03:50:17.957Z,132.60
2019-02-03T03:51:17.958Z,135.10
2019-02-03T03:52:17.970Z,124.80
2019-02-03T03:53:17.994Z,133.70
2019-02-03T03:54:18.003Z,133.00
2019-02-03T03:55:18.011Z,129.10
2019-02-03T03:56:18.029Z,139.20
2019-02-03T03:57:18.038Z,133.50
2019-02-03T03:58:18.055Z,134.20
2019-02-03T03:59:18.057Z,133.10
2019-02-03T04:00:18.077Z,131.90
2019-02-03T04:01:18.081Z,123.50
2019-02-03T04:02:18.094Z,123.40
2019-02-03T04:03:18.107Z,129.90
2019-02-03T04:04:18.119Z,135.20
2019-02-03T04:05:18.133Z,135.00
2019-02-03T04:06:18.147Z,130.10
2019-02-03T04:07:18.159Z,131.80
2019-02-03T04:08:18.183Z,130.80
2019-02-03T04:09:18.184Z,129.70
2019-02-03T04:10:18.195Z,130.90
2019-02-03T04:11:18.209Z,121.50
2019-02-03T04:12:18.218Z,126.40
2019-02-03T04:13:18.234Z,130.50
2019-02-03T04:14:18.246Z,131.90
2019-02-03T04:15:18.256Z,131.50
2019-02-03T04:16:18.270Z,126.90
2019-02-03T04:17:18.282Z,135.30
2019-02-03T04:18:18.348Z,132.50
2019-02-03T04:19:18.307Z,126.90
2019-02-03T04:20:18.325Z,123.50
2019-02-03T04:21:18.332Z,131.70
2019-02-03T04:22:18.495Z,127.60
2019-02-03T04:23:18.367Z,128.70
2019-02-03T04:24:18.367Z,112.30
2019-02-03T04:25:18.386Z,120.50
2019-02-03T04:26:18.395Z,126.00
2019-02-03T04:27:18.405Z,116.10
2019-02-03T04:28:18.417Z,132.00
2019-02-03T04:29:18.436Z,116.90
2019-02-03T04:30:18.447Z,119.70
2019-02-03T04:31:18.457Z,118.80
2019-02-03T04:32:18.466Z,117.70
2019-02-03T04:33:18.481Z,114.50
2019-02-03T04:34:18.492Z,120.40
2019-02-03T04:35:18.513Z,105.30
2019-02-03T04:36:18.517Z,113.90
2019-02-03T04:37:18.528Z,125.80
2019-02-03T04:38:18.549Z,119.00
2019-02-03T04:39:18.555Z,131.10
2019-02-03T04:40:18.569Z,116.00
2019-02-03T04:41:18.583Z,127.10
2019-02-03T04:42:18.602Z,120.40
2019-02-03T04:43:18.610Z,113.00
2019-02-03T04:44:18.619Z,116.00
2019-02-03T04:45:18.634Z,106.70
2019-02-03T04:46:18.640Z,108.40
2019-02-03T04:47:18.657Z,112.70
2019-02-03T04:48:18.667Z,111.70
2019-02-03T04:49:18.678Z,107.70
2019-02-03T04:50:18.690Z,111.80
2019-02-03T04:51:18.704Z,99.20
2019-02-03T04:52:18.718Z,107.40
2019-02-03T04:53:18.730Z,104.40
2019-02-03T04:54:18.743Z,105.40
2019-02-03T04:55:18.756Z,111.40
2019-02-03T04:56:18.770Z,111.30
2019-02-03T04:57:18.777Z,107.90
2019-02-03T04:58:18.798Z,117.90
2019-02-03T04:59:18.811Z,116.50
2019-02-03T05:00:18.821Z,110.60
2019-02-03T05:01:18.826Z,111.50
2019-02-03T05:02:18.843Z,113.50
2019-02-03T05:03:18.853Z,106.40
2019-02-03T05:04:18.864Z,102.60
2019-02-03T05:05:18.876Z,106.30
2019-02-03T05:06:19.060Z,109.50
2019-02-03T05:07:18.904Z,105.90
2019-02-03T05:08:18.916Z,104.40
2019-02-03T05:09:18.926Z,107.70
2019-02-03T05:10:18.944Z,105.50
2019-02-03T05:11:18.961Z,101.70
2019-02-03T05:12:18.967Z,96.10
2019-02-03T05:13:18.980Z,103.30
2019-02-03T05:14:18.989Z,106.90
2019-02-03T05:15:19.005Z,105.90
2019-02-03T05:16:19.013Z,109.30
2019-02-03T05:17:19.219Z,99.90
2019-02-03T05:18:19.042Z,98.70
2019-02-03T05:19:19.051Z,98.70
2019-02-03T05:20:19.072Z,100.70
2019-02-03T05:21:19.081Z,97.40
2019-02-03T05:22:19.098Z,97.60
2019-02-03T05:23:19.104Z,98.10
2019-02-03T05:24:19.121Z,91.30
2019-02-03T05:25:19.136Z,94.00
2019-02-03T05:26:19.139Z,94.00
2019-02-03T05:27:19.154Z,94.10
2019-02-03T05:28:19.171Z,94.40
2019-02-03T05:29:19.176Z,92.80
2019-02-03T05:30:19.196Z,97.20
2019-02-03T05:31:22.301Z,88.10
2019-02-03T05:32:19.214Z,90.30
2019-02-03T05:33:19.236Z,88.80
2019-02-03T05:34:19.242Z,77.20
2019-02-03T05:35:19.257Z,82.90
2019-02-03T05:36:19.266Z,94.00
2019-02-03T05:37:19.282Z,86.80
2019-02-03T05:38:19.292Z,89.60
2019-02-03T05:39:25.019Z,84.40
2019-02-03T05:40:19.315Z,85.00
2019-02-03T05:41:19.334Z,79.60
2019-02-03T05:42:19.344Z,80.00
2019-02-03T05:43:19.353Z,85.20
2019-02-03T05:44:19.367Z,89.10
2019-02-03T05:45:19.408Z,78.30
2019-02-03T05:46:19.395Z,85.10
2019-02-03T05:47:19.406Z,86.00
2019-02-03T05:48:19.416Z,87.50
2019-02-03T05:49:19.443Z,83.40
2019-02-03T05:50:19.451Z,80.60
2019-02-03T05:51:19.461Z,84.10
2019-02-03T05:52:19.472Z,77.70
2019-02-03T05:53:19.482Z,77.90
2019-02-03T05:54:19.492Z,82.00
2019-02-03T05:55:19.512Z,84.10
2019-02-03T05:56:19.518Z,86.20
2019-02-03T05:57:19.544Z,84.90
2019-02-03T05:58:19.547Z,76.60
2019-02-03T05:59:19.562Z,79.80
2019-02-03T06:00:19.578Z,73.60
2019-02-03T06:01:19.591Z,82.10
2019-02-03T06:02:19.595Z,77.20
2019-02-03T06:03:19.864Z,86.20
2019-02-03T06:04:19.620Z,74.60
2019-02-03T06:05:19.634Z,72.50
2019-02-03T06:06:19.652Z,79.00
2019-02-03T06:07:19.660Z,74.80
2019-02-03T06:08:19.675Z,82.10
2019-02-03T06:09:19.686Z,73.50
2019-02-03T06:10:19.708Z,74.70
2019-02-03T06:11:19.710Z,76.90
2019-02-03T06:12:19.724Z,72.90
2019-02-03T06:13:19.735Z,71.30
2019-02-03T06:14:19.757Z,73.00
2019-02-03T06:15:19.777Z,75.50
2019-02-03T06:16:19.775Z,62.90
2019-02-03T06:17:19.792Z,70.40
2019-02-03T06:18:19.799Z,66.00
2019-02-03T06:19:19.922Z,69.50
2019-02-03T06:20:19.830Z,67.60
2019-02-03T06:21:19.837Z,71.40
2019-02-03T06:22:19.852Z,69.10
2019-02-03T06:23:19.863Z,61.50
2019-02-03T06:24:19.877Z,66.50
2019-02-03T06:25:19.894Z,68.30
2019-02-03T06:26:19.902Z,65.60
2019-02-03T06:27:19.917Z,68.10
2019-02-03T06:28:19.928Z,64.70
2019-02-03T06:29:19.946Z,68.70
2019-02-03T06:30:19.954Z,68.00
2019-02-03T06:31:19.974Z,70.60
2019-02-03T06:32:19.987Z,65.20
2019-02-03T06:33:20.073Z,61.30
2019-02-03T06:34:20.006Z,62.00
2019-02-03T06:35:20.019Z,65.80
2019-02-03T06:36:20.038Z,66.70
2019-02-03T06:37:20.045Z,59.30
2019-02-03T06:38:20.054Z,66.60
2019-02-03T06:39:20.070Z,63.40
2019-02-03T06:40:20.081Z,71.20
2019-02-03T06:41:20.092Z,62.20
2019-02-03T06:42:20.112Z,56.00
2019-02-03T06:43:20.118Z,63.50
2019-02-03T06:44:20.132Z,59.60
2019-02-03T06:45:20.146Z,61.10
2019-02-03T06:46:20.164Z,59.10
2019-02-03T06:47:20.172Z,59.60
2019-02-03T06:48:20.187Z,57.40
2019-02-03T06:49:20.194Z,59.70
2019-02-03T06:50:20.216Z,59.20
2019-02-03T06:51:20.220Z,65.00
2019-02-03T06:52:20.238Z,58.20
2019-02-03T06:53:20.247Z,57.40
2019-02-03T06:54:20.258Z,57.00
2019-02-03T06:55:20.273Z,57.70
2019-02-03T06:56:20.286Z,53.50
2019-02-03T06:57:20.299Z,54.40
2019-02-03T06:58:20.309Z,53.40
2019-02-03T06:59:20.322Z,55.70
2019-02-03T07:00:20.336Z,54.20
2019-02-03T07:01:20.347Z,56.60
2019-02-03T07:02:20.366Z,55.00
2019-02-03T07:03:20.376Z,49.80
2019-02-03T07:04:20.388Z,56.20
2019-02-03T07:05:20.400Z,53.00
2019-02-03T07:06:20.411Z,48.50
2019-02-03T07:07:20.431Z,47.50
2019-02-03T07:08:20.440Z,45.60
2019-02-03T07:09:20.452Z,50.60
2019-02-03T07:10:20.468Z,48.00
2019-02-03T07:11:20.475Z,47.80
2019-02-03T07:12:20.493Z,40.70
2019-02-03T07:13:20.501Z,43.60
2019-02-03T07:14:20.513Z,43.10
2019-02-03T07:15:20.526Z,48.90
2019-02-03T07:16:20.538Z,42.70
2019-02-03T07:17:20.557Z,45.80
2019-02-03T07:18:20.566Z,42.60
2019-02-03T07:19:20.579Z,43.20
2019-02-03T07:20:20.591Z,43.00
2019-02-03T07:21:20.602Z,42.90
2019-02-03T07:22:20.618Z,39.20
2019-02-03T07:23:20.724Z,37.80
2019-02-03T07:24:20.642Z,37.70
2019-02-03T07:25:20.660Z,39.40
2019-02-03T07:26:20.670Z,38.20
2019-02-03T07:27:20.684Z,40.90
2019-02-03T07:28:20.692Z,41.00
2019-02-03T07:29:20.707Z,37.60
2019-02-03T07:30:20.719Z,40.50
2019-02-03T07:31:20.747Z,35.70
2019-02-03T07:32:20.744Z,39.00
2019-02-03T07:33:20.774Z,39.60
2019-02-03T07:34:20.773Z,32.40
2019-02-03T07:35:20.786Z,36.60
2019-02-03T07:36:20.801Z,37.10
2019-02-03T07:37:20.818Z,34.60
2019-02-03T07:38:20.826Z,34.10
2019-02-03T07:39:20.838Z,32.30
2019-02-03T07:40:20.910Z,32.10
2019-02-03T07:41:20.860Z,34.00
2019-02-03T07:42:20.876Z,34.10
2019-02-03T07:43:20.886Z,31.80
2019-02-03T07:44:20.901Z,29.90
2019-02-03T07:45:20.914Z,34.90
2019-02-03T07:46:20.924Z,31.80
2019-02-03T07:47:20.937Z,32.40
2019-02-03T07:48:20.957Z,31.10
2019-02-03T07:49:20.963Z,33.40
2019-02-03T07:50:20.975Z,31.80
2019-02-03T07:51:20.999Z,30.20
2019-02-03T07:52:21.003Z,34.30
2019-02-03T07:53:21.015Z,30.90
2019-02-03T07:54:21.028Z,26.10
2019-02-03T07:55:21.043Z,25.80
2019-02-03T07:56:21.055Z,31.60
2019-02-03T07:57:21.067Z,27.00
2019-02-03T07:58:21.086Z,26.20
2019-02-03T07:59:21.091Z,29.20
2019-02-03T08:00:21.103Z,28.20
2019-02-03T08:01:21.117Z,25.80
2019-02-03T08:02:21.131Z,27.40
2019-02-03T08:03:21.146Z,25.50
2019-02-03T08:04:21.161Z,23.10
2019-02-03T08:05:21.169Z,24.20
2019-02-03T08:06:21.182Z,25.90
2019-02-03T08:07:21.195Z,23.70
2019-02-03T08:08:21.203Z,26.80
2019-02-03T08:09:21.219Z,25.00
2019-02-03T08:10:26.727Z,24.90
2019-02-03T08:11:21.252Z,27.10
2019-02-03T08:12:21.257Z,24.50
2019-02-03T08:13:21.268Z,27.10
2019-02-03T08:14:21.283Z,26.90
2019-02-03T08:15:21.294Z,22.80
2019-02-03T08:16:21.306Z,24.30
2019-02-03T08:17:21.321Z,27.80
2019-02-03T08:18:21.332Z,24.20
2019-02-03T08:19:21.348Z,20.50
2019-02-03T08:20:21.357Z,24.00
2019-02-03T08:21:21.487Z,26.40
2019-02-03T08:22:21.384Z,23.00
2019-02-03T08:23:21.398Z,22.10
2019-02-03T08:24:21.418Z,20.00
2019-02-03T08:25:21.424Z,22.10
2019-02-03T08:26:21.436Z,23.30
2019-02-03T08:27:21.448Z,21.70
2019-02-03T08:28:21.502Z,23.50
2019-02-03T08:29:21.476Z,18.40
2019-02-03T08:30:21.496Z,19.90
2019-02-03T08:31:21.502Z,23.30
2019-02-03T08:32:21.513Z,25.60
2019-02-03T08:33:21.527Z,18.50
2019-02-03T08:34:21.538Z,21.10
2019-02-03T08:35:21.558Z,21.70
2019-02-03T08:36:21.569Z,22.20
2019-02-03T08:37:21.578Z,21.10
2019-02-03T08:38:21.589Z,19.40
2019-02-03T08:39:21.602Z,22.60
2019-02-03T08:40:21.618Z,18.60
2019-02-03T08:41:21.627Z,18.40
2019-02-03T08:42:21.649Z,17.70
2019-02-03T08:43:21.653Z,20.50
2019-02-03T08:44:21.667Z,17.80
2019-02-03T08:45:21.740Z,18.80
2019-02-03T08:46:21.693Z,19.50
2019-02-03T08:47:21.704Z,21.00
2019-02-03T08:48:21.726Z,18.90
2019-02-03T08:49:21.733Z,19.70
2019-02-03T08:50:21.743Z,17.30
2019-02-03T08:51:21.760Z,20.00
2019-02-03T08:52:21.769Z,19.60
2019-02-03T08:53:21.784Z,21.20
2019-02-03T08:54:21.795Z,24.60
2019-02-03T08:55:21.809Z,24.60
2019-02-03T08:56:21.831Z,17.40
2019-02-03T08:57:21.836Z,20.60
2019-02-03T08:58:21.847Z,22.90
2019-02-03T08:59:21.867Z,20.60
2019-02-03T09:00:21.873Z,17.60
2019-02-03T09:01:21.896Z,16.90
2019-02-03T09:02:21.899Z,15.40
2019-02-03T09:03:21.915Z,17.90
2019-02-03T09:04:21.926Z,19.40
2019-02-03T09:05:21.938Z,16.70
2019-02-03T09:06:21.954Z,19.80
2019-02-03T09:07:21.965Z,22.50
2019-02-03T09:08:21.977Z,17.10
2019-02-03T09:09:21.997Z,19.70
2019-02-03T09:10:22.006Z,15.00
2019-02-03T09:11:22.019Z,17.10
2019-02-03T09:12:22.030Z,19.40
2019-02-03T09:13:22.049Z,16.70
2019-02-03T09:14:22.065Z,18.30
2019-02-03T09:15:22.131Z,18.40
2019-02-03T09:16:22.085Z,14.60
2019-02-03T09:17:22.226Z,17.50
2019-02-03T09:18:22.110Z,17.00
2019-02-03T09:19:22.126Z,16.70
2019-02-03T09:20:22.136Z,16.10
2019-02-03T09:21:22.152Z,19.20
2019-02-03T09:22:22.163Z,19.20
2019-02-03T09:23:22.178Z,14.70
2019-02-03T09:24:22.192Z,17.80
2019-02-03T09:25:22.206Z,18.80
2019-02-03T09:26:22.216Z,14.80
2019-02-03T09:27:22.233Z,14.10
2019-02-03T09:28:22.245Z,15.80
2019-02-03T09:29:22.258Z,14.20
2019-02-03T09:30:22.299Z,14.80
2019-02-03T09:31:22.293Z,16.50
2019-02-03T09:32:22.299Z,17.10
2019-02-03T09:33:22.310Z,16.10
2019-02-03T09:34:22.326Z,18.40
2019-02-03T09:35:22.346Z,17.20
2019-02-03T09:36:22.350Z,14.60
2019-02-03T09:37:22.364Z,16.70
2019-02-03T09:38:22.378Z,19.20
2019-02-03T09:39:22.392Z,20.80
2019-02-03T09:40:22.404Z,14.10
2019-02-03T09:41:22.421Z,20.60
2019-02-03T09:42:22.438Z,14.80
2019-02-03T09:43:22.446Z,13.30
2019-02-03T09:44:22.460Z,14.10
2019-02-03T09:45:22.488Z,14.20
2019-02-03T09:46:22.489Z,16.00
2019-02-03T09:47:22.499Z,13.70
2019-02-03T09:48:22.521Z,14.60
2019-02-03T09:49:22.529Z,14.80
2019-02-03T09:50:22.541Z,13.30
2019-02-03T09:51:22.555Z,16.50
2019-02-03T09:52:22.567Z,13.20
2019-02-03T09:53:22.581Z,15.90
2019-02-03T09:54:22.594Z,11.10
2019-02-03T09:55:22.611Z,16.10
2019-02-03T09:56:22.623Z,14.60
2019-02-03T09:57:22.635Z,16.30
2019-02-03T09:58:22.651Z,13.50
2019-02-03T09:59:22.672Z,11.20
2019-02-03T10:00:22.675Z,12.60
2019-02-03T10:01:22.698Z,13.70
2019-02-03T10:02:22.713Z,12.70
2019-02-03T10:03:22.720Z,12.30
2019-02-03T10:04:22.731Z,14.20
2019-02-03T10:05:22.747Z,11.20
2019-02-03T10:06:22.758Z,13.30
2019-02-03T10:07:22.773Z,12.30
2019-02-03T10:08:22.785Z,16.10
2019-02-03T10:09:22.852Z,11.60
2019-02-03T10:10:22.816Z,12.60
2019-02-03T10:11:23.176Z,11.50
2019-02-03T10:12:22.839Z,11.20
2019-02-03T10:13:22.861Z,12.20
2019-02-03T10:14:22.867Z,12.20
2019-02-03T10:15:22.883Z,14.00
2019-02-03T10:16:22.894Z,10.40
2019-02-03T10:17:22.912Z,15.20
2019-02-03T10:18:22.925Z,12.60
2019-02-03T10:19:22.936Z,12.30
2019-02-03T10:20:22.954Z,10.40
2019-02-03T10:21:22.975Z,10.60
2019-02-03T10:22:22.978Z,10.90
2019-02-03T10:23:22.996Z,10.80
2019-02-03T10:24:23.006Z,11.30
2019-02-03T10:25:23.022Z,12.60
2019-02-03T10:26:23.035Z,11.40
2019-02-03T10:27:23.052Z,10.20
2019-02-03T10:28:23.061Z,12.80
2019-02-03T10:29:23.085Z,11.70
2019-02-03T10:30:23.093Z,10.80
2019-02-03T10:31:23.107Z,10.50
2019-02-03T10:32:23.124Z,9.80
2019-02-03T10:33:23.132Z,10.20
2019-02-03T10:34:23.147Z,11.70
2019-02-03T10:35:23.913Z,11.20
2019-02-03T10:36:23.286Z,10.40
2019-02-03T10:37:23.197Z,12.70
2019-02-03T10:38:23.207Z,11.20
2019-02-03T10:39:23.219Z,10.50
2019-02-03T10:40:23.231Z,13.90
2019-02-03T10:41:24.430Z,13.50
2019-02-03T10:42:23.259Z,12.50
2019-02-03T10:43:23.273Z,12.70
2019-02-03T10:44:23.289Z,11.90
2019-02-03T10:45:23.355Z,10.50
2019-02-03T10:46:23.316Z,12.30
2019-02-03T10:47:23.332Z,13.40
2019-02-03T10:48:23.346Z,9.50
2019-02-03T10:49:23.360Z,14.00
2019-02-03T10:50:23.377Z,12.30
2019-02-03T10:51:23.395Z,12.30
2019-02-03T10:52:23.402Z,12.40
2019-02-03T10:53:23.418Z,11.40
2019-02-03T10:54:23.428Z,11.30
2019-02-03T10:55:23.450Z,14.00
2019-02-03T10:56:23.458Z,12.10
2019-02-03T10:57:23.472Z,9.40
2019-02-03T10:58:23.494Z,10.10
2019-02-03T10:59:23.507Z,13.50
2019-02-03T11:00:23.514Z,10.40
2019-02-03T11:01:23.529Z,11.90
2019-02-03T11:02:23.544Z,12.20
2019-02-03T11:03:23.565Z,34.30
2019-02-03T11:04:23.572Z,23.00
2019-02-03T11:05:23.593Z,8.90
2019-02-03T11:06:23.602Z,9.00
2019-02-03T11:07:23.619Z,11.10
2019-02-03T11:08:23.633Z,9.20
2019-02-03T11:09:23.647Z,11.90
2019-02-03T11:10:23.663Z,19.20
2019-02-03T11:11:36.107Z,24.70
2019-02-03T11:12:23.691Z,9.30
2019-02-03T11:13:23.704Z,9.40
2019-02-03T11:14:23.725Z,9.50
2019-02-03T11:15:23.737Z,7.20
2019-02-03T11:16:23.750Z,11.90
2019-02-03T11:17:23.762Z,10.60
2019-02-03T11:18:23.782Z,11.10
2019-02-03T11:19:23.795Z,10.90
2019-02-03T11:20:23.811Z,9.90
2019-02-03T11:21:23.822Z,7.40
2019-02-03T11:22:23.846Z,13.40
2019-02-03T11:23:23.853Z,9.50
2019-02-03T11:24:23.869Z,12.00
2019-02-03T11:25:23.880Z,8.50
2019-02-03T11:26:23.895Z,10.70
2019-02-03T11:27:23.908Z,9.00
2019-02-03T11:28:23.926Z,8.00
2019-02-03T11:29:23.939Z,8.40
2019-02-03T11:30:23.958Z,10.30
2019-02-03T11:31:23.966Z,10.10
2019-02-03T11:32:23.983Z,9.50
2019-02-03T11:33:23.998Z,9.30
2019-02-03T11:34:24.011Z,12.40
2019-02-03T11:35:24.028Z,9.70
2019-02-03T11:36:24.041Z,7.70
2019-02-03T11:37:24.058Z,9.20
2019-02-03T11:38:24.071Z,10.90
2019-02-03T11:39:24.086Z,12.60
2019-02-03T11:40:24.104Z,13.30
2019-02-03T11:41:24.115Z,12.00
2019-02-03T11:42:24.131Z,7.30
2019-02-03T11:43:24.156Z,7.50
2019-02-03T11:44:24.164Z,10.10
2019-02-03T11:45:24.179Z,8.90
2019-02-03T11:46:24.192Z,8.10
2019-02-03T11:47:24.207Z,10.90
2019-02-03T11:48:24.223Z,10.70
2019-02-03T11:49:24.244Z,12.30
2019-02-03T11:50:24.251Z,8.40
2019-02-03T11:51:24.269Z,7.60
2019-02-03T11:52:24.282Z,8.50
2019-02-03T11:53:24.299Z,9.30
2019-02-03T11:54:24.321Z,10.80
2019-02-03T11:55:24.326Z,10.00
2019-02-03T11:56:24.340Z,8.50
2019-02-03T11:57:24.355Z,11.00
2019-02-03T11:58:24.371Z,10.60
2019-02-03T11:59:24.386Z,8.70
2019-02-03T12:00:24.400Z,8.50
2019-02-03T12:01:24.415Z,11.50
2019-02-03T12:02:24.433Z,11.60
2019-02-03T12:03:24.445Z,9.10
2019-02-03T12:04:24.460Z,7.40
2019-02-03T12:05:24.479Z,10.60
2019-02-03T12:06:24.586Z,8.80
2019-02-03T12:07:24.505Z,10.00
2019-02-03T12:08:24.523Z,8.90
2019-02-03T12:09:27.263Z,7.80
2019-02-03T12:10:24.553Z,13.70
2019-02-03T12:11:24.567Z,9.90
2019-02-03T12:12:24.581Z,11.20
2019-02-03T12:13:24.603Z,11.40
2019-02-03T12:14:24.608Z,10.90
2019-02-03T12:15:24.624Z,10.30
2019-02-03T12:16:24.640Z,11.50
2019-02-03T12:17:24.653Z,8.30
2019-02-03T12:18:24.674Z,9.20
2019-02-03T12:19:24.685Z,8.40
2019-02-03T12:20:24.706Z,9.00
2019-02-03T12:21:24.712Z,8.90
2019-02-03T12:22:24.727Z,11.40
2019-02-03T12:23:24.745Z,8.40
2019-02-03T12:24:24.761Z,10.60
2019-02-03T12:25:24.775Z,8.90
2019-02-03T12:26:24.795Z,8.50
2019-02-03T12:27:24.806Z,7.50
2019-02-03T12:28:24.817Z,9.50
2019-02-03T12:29:24.834Z,9.30
2019-02-03T12:30:24.854Z,7.80
2019-02-03T12:31:24.866Z,9.50
2019-02-03T12:32:24.879Z,8.10
2019-02-03T12:33:24.900Z,8.00
2019-02-03T12:34:24.923Z,8.60
2019-02-03T12:35:24.924Z,9.00
2019-02-03T12:36:24.937Z,10.60
2019-02-03T12:37:24.954Z,12.40
2019-02-03T12:38:24.970Z,11.70
2019-02-03T12:39:24.984Z,9.30
2019-02-03T12:40:24.997Z,13.50
2019-02-03T12:41:25.015Z,11.70
2019-02-03T12:42:25.035Z,11.70
2019-02-03T12:43:25.045Z,7.60
2019-02-03T12:44:25.066Z,10.90